createdAt,value
2023-04-16T00:02:07.746Z,3.97
2023-04-16T00:04:34.909Z,4.25
2023-04-16T00:07:01.987Z,4.03
2023-04-16T00:09:28.938Z,3.80
2023-04-16T00:11:56.407Z,3.83
2023-04-16T00:14:23.373Z,4.28
2023-04-16T00:16:50.538Z,4.80
2023-04-16T00:19:17.565Z,5.25
2023-04-16T00:21:44.734Z,5.00
2023-04-16T00:24:11.910Z,5.28
2023-04-16T00:26:38.912Z,5.30
2023-04-16T00:29:06.225Z,4.80
2023-04-16T00:31:34.339Z,5.57
2023-04-16T00:34:03.921Z,5.28
2023-04-16T00:36:30.911Z,5.50
2023-04-16T00:38:57.813Z,5.03
2023-04-16T00:41:25.078Z,5.28
2023-04-16T00:43:52.317Z,5.70
2023-04-16T00:46:26.341Z,6.53
2023-04-16T00:48:55.033Z,6.40
2023-04-16T00:51:22.437Z,5.88
2023-04-16T00:53:50.649Z,5.95
2023-04-16T00:56:19.063Z,5.72
2023-04-16T00:58:47.684Z,6.00
2023-04-16T01:01:14.771Z,6.65
2023-04-16T01:03:47.430Z,6.88
2023-04-16T01:06:16.512Z,6.93
2023-04-16T01:08:43.946Z,7.35
2023-04-16T01:11:12.047Z,6.88
2023-04-16T01:13:39.864Z,7.15
2023-04-16T01:16:08.753Z,6.72
2023-04-16T01:18:36.681Z,7.30
2023-04-16T01:21:04.917Z,7.18
2023-04-16T01:23:32.496Z,8.43
2023-04-16T01:25:59.483Z,7.57
2023-04-16T01:28:26.472Z,7.38
2023-04-16T01:30:53.361Z,7.85
2023-04-16T01:33:29.575Z,7.47
2023-04-16T01:35:56.782Z,7.65
2023-04-16T01:38:24.137Z,8.88
2023-04-16T01:40:56.619Z,8.25
2023-04-16T01:43:23.564Z,8.95
2023-04-16T01:45:50.605Z,8.90
2023-04-16T01:48:17.680Z,9.60
2023-04-16T01:50:44.622Z,8.30
2023-04-16T01:53:11.629Z,9.35
2023-04-16T01:55:39.055Z,8.23
2023-04-16T01:58:07.909Z,8.65
2023-04-16T02:00:35.141Z,9.20
2023-04-16T02:03:02.632Z,8.00
2023-04-16T02:05:29.832Z,8.80
2023-04-16T02:07:58.127Z,9.20
2023-04-16T02:10:28.102Z,9.07
2023-04-16T02:12:55.327Z,9.07
2023-04-16T02:15:23.888Z,9.48
2023-04-16T02:17:55.104Z,9.55
2023-04-16T02:20:23.602Z,10.05
2023-04-16T02:22:54.875Z,10.50
2023-04-16T02:25:24.289Z,10.18
2023-04-16T02:27:54.522Z,9.70
2023-04-16T02:30:29.375Z,9.35
2023-04-16T02:32:56.740Z,9.25
2023-04-16T02:35:24.657Z,9.65
2023-04-16T02:37:52.205Z,9.00
2023-04-16T02:40:19.523Z,9.90
2023-04-16T02:42:47.225Z,10.77
2023-04-16T02:45:15.027Z,10.18
2023-04-16T02:47:42.509Z,10.98
2023-04-16T02:50:10.340Z,10.63
2023-04-16T02:52:37.658Z,10.25
2023-04-16T02:55:06.019Z,10.05
2023-04-16T02:57:33.913Z,10.18
2023-04-16T03:00:01.438Z,10.63
2023-04-16T03:02:29.393Z,11.43
2023-04-16T03:04:56.896Z,10.23
2023-04-16T03:07:24.573Z,10.32
2023-04-16T03:09:52.058Z,10.38
2023-04-16T03:12:19.432Z,11.00
2023-04-16T03:14:50.216Z,11.48
2023-04-16T03:17:17.770Z,10.80
2023-04-16T03:19:45.382Z,11.77
2023-04-16T03:22:12.868Z,11.82
2023-04-16T03:24:40.262Z,10.45
2023-04-16T03:27:07.919Z,10.77
2023-04-16T03:29:40.625Z,10.93
2023-04-16T03:32:09.284Z,11.68
2023-04-16T03:34:37.391Z,12.23
2023-04-16T03:37:06.151Z,10.73
2023-04-16T03:39:34.682Z,11.20
2023-04-16T03:42:02.477Z,11.23
2023-04-16T03:44:30.402Z,11.93
2023-04-16T03:46:57.752Z,12.20
2023-04-16T03:49:25.355Z,12.63
2023-04-16T03:51:52.937Z,12.27
2023-04-16T03:54:22.584Z,12.20
2023-04-16T03:56:57.062Z,13.32
2023-04-16T03:59:24.649Z,12.23
2023-04-16T04:01:52.050Z,13.52
2023-04-16T04:04:19.622Z,12.50
2023-04-16T04:06:47.318Z,13.23
2023-04-16T04:09:16.346Z,13.88
2023-04-16T04:11:43.963Z,12.43
2023-04-16T04:14:11.853Z,13.00
2023-04-16T04:16:39.571Z,12.60
2023-04-16T04:19:07.024Z,12.77
2023-04-16T04:21:34.883Z,12.85
2023-04-16T04:24:04.572Z,13.73
2023-04-16T04:26:33.453Z,13.55
2023-04-16T04:29:00.859Z,12.10
2023-04-16T04:31:28.224Z,13.90
2023-04-16T04:33:56.492Z,13.55
2023-04-16T04:36:23.918Z,12.40
2023-04-16T04:38:51.982Z,12.88
2023-04-16T04:41:21.317Z,12.10
2023-04-16T04:43:48.629Z,12.35
2023-04-16T04:46:16.676Z,11.65
2023-04-16T04:48:44.015Z,12.32
2023-04-16T04:51:11.358Z,11.93
2023-04-16T04:53:38.706Z,12.07
2023-04-16T04:56:12.113Z,12.27
2023-04-16T04:58:41.649Z,11.70
2023-04-16T05:01:09.103Z,11.75
2023-04-16T05:03:36.996Z,11.45
2023-04-16T05:06:04.549Z,11.10
2023-04-16T05:08:31.897Z,12.20
2023-04-16T05:10:59.214Z,11.90
2023-04-16T05:13:27.093Z,11.30
2023-04-16T05:15:54.442Z,12.07
2023-04-16T05:18:21.723Z,11.00
2023-04-16T05:20:49.070Z,11.55
2023-04-16T05:23:16.410Z,11.60
2023-04-16T05:25:43.736Z,11.25
2023-04-16T05:28:11.467Z,11.63
2023-04-16T05:30:38.839Z,11.43
2023-04-16T05:33:06.209Z,11.32
2023-04-16T05:35:34.421Z,12.15
2023-04-16T05:38:01.735Z,11.98
2023-04-16T05:40:29.055Z,12.07
2023-04-16T05:43:00.312Z,11.68
2023-04-16T05:45:28.129Z,10.65
2023-04-16T05:47:55.548Z,12.02
2023-04-16T05:50:22.914Z,10.95
2023-04-16T05:52:50.281Z,11.15
2023-04-16T05:55:17.621Z,9.95
2023-04-16T05:57:44.982Z,11.07
2023-04-16T06:00:12.545Z,10.40
2023-04-16T06:02:40.334Z,10.43
2023-04-16T06:05:08.157Z,10.50
2023-04-16T06:07:35.771Z,10.35
2023-04-16T06:10:03.186Z,9.35
2023-04-16T06:12:46.822Z,9.77
2023-04-16T06:15:14.734Z,9.50
2023-04-16T06:17:42.071Z,9.38
2023-04-16T06:20:10.002Z,10.10
2023-04-16T06:22:37.468Z,9.70
2023-04-16T06:25:05.154Z,9.77
2023-04-16T06:27:32.482Z,10.35
2023-04-16T06:29:59.818Z,10.13
2023-04-16T06:32:27.148Z,10.23
2023-04-16T06:34:54.531Z,9.80
2023-04-16T06:37:21.886Z,9.60
2023-04-16T06:39:52.250Z,9.48
2023-04-16T06:42:20.305Z,9.77
2023-04-16T06:44:47.890Z,9.35
2023-04-16T06:47:16.398Z,10.20
2023-04-16T06:49:43.788Z,9.82
2023-04-16T06:52:11.696Z,9.45
2023-04-16T06:54:39.667Z,10.48
2023-04-16T06:57:07.096Z,9.98
2023-04-16T06:59:34.451Z,9.93
2023-04-16T07:02:02.084Z,9.05
2023-04-16T07:04:29.609Z,8.95
2023-04-16T07:06:56.965Z,9.10
2023-04-16T07:09:24.874Z,8.65
2023-04-16T07:11:52.197Z,9.73
2023-04-16T07:14:19.566Z,8.88
2023-04-16T07:16:46.929Z,8.95
2023-04-16T07:19:14.287Z,9.52
2023-04-16T07:21:44.622Z,8.93
2023-04-16T07:24:13.526Z,9.10
2023-04-16T07:26:43.943Z,9.02
2023-04-16T07:29:11.808Z,9.32
2023-04-16T07:31:42.357Z,10.30
2023-04-16T07:34:10.852Z,9.07
2023-04-16T07:36:38.313Z,9.18
2023-04-16T07:39:06.312Z,9.32
2023-04-16T07:41:33.805Z,9.10
2023-04-16T07:44:01.821Z,10.07
2023-04-16T07:46:39.338Z,14.73
2023-04-16T07:49:13.468Z,12.35
2023-04-16T07:51:40.954Z,10.45
2023-04-16T07:54:08.306Z,10.70
2023-04-16T07:56:35.896Z,10.82
2023-04-16T07:59:18.465Z,11.00
2023-04-16T08:01:50.337Z,10.68
2023-04-16T08:04:23.076Z,12.68
2023-04-16T08:06:51.703Z,10.80
2023-04-16T08:09:21.606Z,10.30
2023-04-16T08:11:49.992Z,11.80
2023-04-16T08:14:17.901Z,12.05
2023-04-16T08:16:45.542Z,11.45
2023-04-16T08:19:13.021Z,12.48
2023-04-16T08:21:40.636Z,12.20
2023-04-16T08:24:08.019Z,12.23
2023-04-16T08:26:35.374Z,12.52
2023-04-16T08:29:02.659Z,13.57
2023-04-16T08:31:30.370Z,12.27
2023-04-16T08:33:58.055Z,12.25
2023-04-16T08:36:25.601Z,13.50
2023-04-16T08:38:55.798Z,11.40
2023-04-16T08:41:23.998Z,12.30
2023-04-16T08:43:53.786Z,12.95
2023-04-16T08:46:25.779Z,11.65
2023-04-16T08:48:58.185Z,10.82
2023-04-16T08:51:29.083Z,11.38
2023-04-16T08:54:04.832Z,10.65
2023-04-16T08:56:36.456Z,10.43
2023-04-16T08:59:07.884Z,11.75
2023-04-16T09:01:37.923Z,11.88
2023-04-16T09:04:07.294Z,10.20
2023-04-16T09:06:36.593Z,11.27
2023-04-16T09:09:06.642Z,11.15
2023-04-16T09:11:34.381Z,10.85
2023-04-16T09:14:01.854Z,10.43
2023-04-16T09:16:34.316Z,9.85
2023-04-16T09:19:01.492Z,8.88
2023-04-16T09:21:28.551Z,8.50
2023-04-16T09:23:56.272Z,9.20
2023-04-16T09:26:23.706Z,9.20
2023-04-16T09:28:53.511Z,8.63
2023-04-16T09:31:20.512Z,9.38
2023-04-16T09:34:09.132Z,10.23
2023-04-16T09:36:37.015Z,11.40
2023-04-16T09:39:04.273Z,8.73
2023-04-16T09:41:39.539Z,9.25
2023-04-16T09:44:06.576Z,8.10
2023-04-16T09:46:43.284Z,7.78
2023-04-16T09:49:18.737Z,9.95
2023-04-16T09:51:49.664Z,10.05
2023-04-16T09:54:16.772Z,9.40
2023-04-16T09:56:46.779Z,8.88
2023-04-16T09:59:24.314Z,9.55
2023-04-16T10:01:53.540Z,10.25
2023-04-16T10:05:07.021Z,8.82
2023-04-16T10:07:36.204Z,9.88
2023-04-16T10:10:05.374Z,9.65
2023-04-16T10:12:36.255Z,10.02
2023-04-16T10:15:11.120Z,9.95
2023-04-16T10:17:38.897Z,10.70
2023-04-16T10:20:08.240Z,9.30
2023-04-16T10:22:38.721Z,9.77
2023-04-16T10:25:07.645Z,9.23
2023-04-16T10:27:35.149Z,9.75
2023-04-16T10:30:03.300Z,9.27
2023-04-16T10:32:31.928Z,7.93
2023-04-16T10:35:08.388Z,9.50
2023-04-16T10:37:37.962Z,9.23
2023-04-16T10:40:27.221Z,8.32
2023-04-16T10:43:00.050Z,8.27
2023-04-16T10:45:33.510Z,7.68
2023-04-16T10:48:11.983Z,9.80
2023-04-16T10:50:39.772Z,8.57
2023-04-16T10:53:20.826Z,8.45
2023-04-16T10:56:07.785Z,7.20
2023-04-16T10:58:39.275Z,7.68
2023-04-16T11:01:14.421Z,7.75
2023-04-16T11:04:28.699Z,7.20
2023-04-16T11:07:19.180Z,7.40
2023-04-16T11:14:05.050Z,6.47
2023-04-16T11:16:32.271Z,6.65
2023-04-16T11:18:59.269Z,6.22
2023-04-16T11:21:43.621Z,7.22
2023-04-16T11:25:17.813Z,6.90
2023-04-16T11:27:46.505Z,6.72
2023-04-16T11:30:14.171Z,5.70
2023-04-16T11:32:41.430Z,7.53
2023-04-16T11:35:19.540Z,7.28
2023-04-16T11:37:48.410Z,6.63
2023-04-16T11:40:15.891Z,5.95
2023-04-16T11:43:27.857Z,5.47
2023-04-16T11:46:20.081Z,5.57
2023-04-16T11:48:56.000Z,5.60
2023-04-16T11:51:25.244Z,4.20
2023-04-16T11:58:13.153Z,4.03
2023-04-16T12:00:41.702Z,4.20
2023-04-16T12:03:08.969Z,4.35
2023-04-16T12:05:42.303Z,4.15
2023-04-16T12:12:32.060Z,4.15
2023-04-16T12:15:04.259Z,4.25
2023-04-16T12:17:43.872Z,3.45
2023-04-16T12:20:15.647Z,3.45
2023-04-16T12:22:49.303Z,4.10
2023-04-16T12:25:18.247Z,3.97
2023-04-16T12:27:53.482Z,3.90
2023-04-16T12:30:23.249Z,3.50
2023-04-16T12:57:55.676Z,3.50
2023-04-16T13:00:22.741Z,3.55
2023-04-16T13:02:49.842Z,3.47
2023-04-16T13:05:19.127Z,3.30
2023-04-16T13:07:46.374Z,2.97
2023-04-16T13:10:13.830Z,3.83
2023-04-16T13:12:41.004Z,3.10
2023-04-16T13:15:09.169Z,3.75
2023-04-16T13:17:36.225Z,3.45
2023-04-16T13:20:03.261Z,3.78
2023-04-16T13:22:30.477Z,3.50
2023-04-16T13:24:57.457Z,3.50
2023-04-16T13:27:33.558Z,3.60
2023-04-16T13:30:25.865Z,3.22
2023-04-16T13:32:52.873Z,3.47
2023-04-16T13:35:52.182Z,4.47
2023-04-16T13:38:21.993Z,3.78
2023-04-16T13:40:51.350Z,5.97
2023-04-16T13:43:19.065Z,5.95
2023-04-16T13:45:47.567Z,5.53
2023-04-16T13:48:14.547Z,5.65
2023-04-16T13:50:41.607Z,5.20
2023-04-16T13:53:08.574Z,4.80
2023-04-16T13:55:35.844Z,4.63
2023-04-16T13:58:03.310Z,5.20
2023-04-16T14:00:30.350Z,4.97
2023-04-16T14:02:57.393Z,4.07
2023-04-16T14:05:27.008Z,4.50
2023-04-16T14:07:54.356Z,4.50
2023-04-16T14:10:21.437Z,5.55
2023-04-16T14:12:48.512Z,6.47
2023-04-16T14:15:15.943Z,7.00
2023-04-16T14:17:44.198Z,7.40
2023-04-16T14:20:13.407Z,7.70
2023-04-16T14:23:06.407Z,8.18
2023-04-16T14:25:34.072Z,9.23
2023-04-16T14:28:01.308Z,9.73
2023-04-16T14:30:28.404Z,11.90
2023-04-16T14:32:55.745Z,9.05
2023-04-16T14:35:23.758Z,8.35
2023-04-16T14:37:50.934Z,8.25
2023-04-16T14:40:18.280Z,8.90
2023-04-16T14:42:45.347Z,7.85
2023-04-16T14:45:12.570Z,8.10
2023-04-16T14:48:05.459Z,8.15
2023-04-16T14:50:37.958Z,6.70
2023-04-16T14:53:07.124Z,6.13
2023-04-16T14:55:34.098Z,6.45
2023-04-16T14:58:01.290Z,5.75
2023-04-16T15:00:28.870Z,5.88
2023-04-16T15:02:56.808Z,6.60
2023-04-16T15:05:24.101Z,6.65
2023-04-16T15:07:51.544Z,6.43
2023-04-16T15:10:18.799Z,5.45
2023-04-16T15:12:45.859Z,6.03
2023-04-16T15:15:12.925Z,4.80
2023-04-16T15:17:40.014Z,5.00
2023-04-16T15:20:10.499Z,4.47
2023-04-16T15:22:38.322Z,4.45
2023-04-16T15:25:07.065Z,3.58
2023-04-16T15:28:42.850Z,3.75
2023-04-16T15:31:14.878Z,3.33
2023-04-16T15:33:42.876Z,3.53
2023-04-16T15:36:12.052Z,3.63
2023-04-16T15:38:43.773Z,3.30
2023-04-16T15:59:35.497Z,3.40
2023-04-16T16:02:02.765Z,3.97
2023-04-16T16:04:29.982Z,3.72
2023-04-16T16:06:57.278Z,3.22
2023-04-16T16:09:27.906Z,2.90
2023-04-16T16:11:55.705Z,3.10
2023-04-16T16:14:22.970Z,3.08
2023-04-16T16:16:52.108Z,3.30
2023-04-16T16:19:19.595Z,2.92
2023-04-16T16:21:49.934Z,3.20
2023-04-16T16:24:16.947Z,3.08
2023-04-16T16:26:45.055Z,3.13
2023-04-16T16:29:12.257Z,3.47
2023-04-16T16:31:39.601Z,3.35
2023-04-16T16:34:06.663Z,3.25
2023-04-16T16:36:36.790Z,3.58
2023-04-16T16:39:04.997Z,2.97
2023-04-16T16:41:32.327Z,2.78
2023-04-16T16:43:59.802Z,2.78
2023-04-16T16:46:26.951Z,3.00
2023-04-16T16:48:53.986Z,3.03
2023-04-16T16:51:21.454Z,3.15
2023-04-16T16:53:48.355Z,3.30
2023-04-16T16:56:15.986Z,3.17
2023-04-16T16:58:43.092Z,3.60
2023-04-16T17:01:10.504Z,3.20
2023-04-16T17:03:37.582Z,4.00
2023-04-16T17:06:04.706Z,4.05
2023-04-16T17:08:31.588Z,3.85
2023-04-16T17:10:58.767Z,3.70
2023-04-16T17:13:25.723Z,4.00
2023-04-16T17:15:55.732Z,4.10
2023-04-16T17:18:22.748Z,4.65
2023-04-16T17:20:49.657Z,3.55
2023-04-16T17:23:17.030Z,4.32
2023-04-16T17:25:44.005Z,5.00
2023-04-16T17:28:11.229Z,6.20
2023-04-16T17:30:38.252Z,5.70
2023-04-16T17:33:05.594Z,5.45
2023-04-16T17:35:32.821Z,4.70
2023-04-16T17:37:59.838Z,4.50
2023-04-16T17:40:27.064Z,4.50
2023-04-16T17:42:56.345Z,4.60
2023-04-16T17:45:23.541Z,4.88
2023-04-16T17:47:50.563Z,4.25
2023-04-16T17:50:17.802Z,4.50
2023-04-16T17:52:44.838Z,5.00
2023-04-16T17:55:12.270Z,5.80
2023-04-16T17:57:39.563Z,5.53
2023-04-16T18:00:11.263Z,5.45
2023-04-16T18:02:41.178Z,6.53
2023-04-16T18:05:09.031Z,7.43
2023-04-16T18:07:37.568Z,7.05
2023-04-16T18:10:05.689Z,8.02
2023-04-16T18:12:33.030Z,7.88
2023-04-16T18:15:00.140Z,7.93
2023-04-16T18:17:27.345Z,8.13
2023-04-16T18:19:54.394Z,7.82
2023-04-16T18:22:21.457Z,9.95
2023-04-16T18:24:48.906Z,10.88
2023-04-16T18:27:16.749Z,12.25
2023-04-16T18:29:45.257Z,13.73
2023-04-16T18:32:12.905Z,13.07
2023-04-16T18:34:40.348Z,13.77
2023-04-16T18:37:08.022Z,13.95
2023-04-16T18:39:36.464Z,10.98
2023-04-16T18:42:04.001Z,9.27
2023-04-16T18:44:31.303Z,8.05
2023-04-16T18:47:00.316Z,8.07
2023-04-16T18:49:27.901Z,6.95
2023-04-16T18:51:58.092Z,7.78
2023-04-16T18:54:25.814Z,6.63
2023-04-16T18:56:54.099Z,6.93
2023-04-16T18:59:21.908Z,6.20
2023-04-16T19:01:49.258Z,6.45
2023-04-16T19:04:17.009Z,6.30
2023-04-16T19:06:45.073Z,6.07
2023-04-16T19:09:13.006Z,6.70
2023-04-16T19:11:41.052Z,7.75
2023-04-16T19:14:08.660Z,7.43
2023-04-16T19:16:41.442Z,7.38
2023-04-16T19:19:09.242Z,7.82
2023-04-16T19:21:37.217Z,7.88
2023-04-16T19:24:05.512Z,6.85
2023-04-16T19:26:36.520Z,7.10
2023-04-16T19:29:06.113Z,6.45
2023-04-16T19:31:36.412Z,6.72
2023-04-16T19:34:03.976Z,6.88
2023-04-16T19:36:32.178Z,6.40
2023-04-16T19:39:00.017Z,6.10
2023-04-16T19:41:27.258Z,6.28
2023-04-16T19:43:56.059Z,6.30
2023-04-16T19:46:24.211Z,6.25
2023-04-16T19:48:51.518Z,6.28
2023-04-16T19:51:18.902Z,6.00
2023-04-16T19:53:46.192Z,5.95
2023-04-16T19:56:14.161Z,5.40
2023-04-16T19:58:42.439Z,5.88
2023-04-16T20:01:11.191Z,5.88
2023-04-16T20:03:38.881Z,5.65
2023-04-16T20:06:06.804Z,5.07
2023-04-16T20:08:34.039Z,5.40
2023-04-16T20:11:01.074Z,4.30
2023-04-16T20:13:28.103Z,6.47
2023-04-16T20:15:55.147Z,6.35
2023-04-16T20:18:22.283Z,5.97
2023-04-16T20:20:49.315Z,5.63
2023-04-16T20:23:16.305Z,6.18
2023-04-16T20:25:43.652Z,5.97
2023-04-16T20:28:10.715Z,6.22
2023-04-16T20:30:39.505Z,6.20
2023-04-16T20:33:07.862Z,6.55
2023-04-16T20:35:35.396Z,6.78
2023-04-16T20:38:02.333Z,6.15
2023-04-16T20:40:30.188Z,6.20
2023-04-16T20:42:59.870Z,6.00
2023-04-16T20:45:32.230Z,6.25
2023-04-16T20:47:59.788Z,6.47
2023-04-16T20:50:27.080Z,6.05
2023-04-16T20:52:54.008Z,5.15
2023-04-16T20:55:21.261Z,4.80
2023-04-16T20:57:48.503Z,4.75
2023-04-16T21:00:16.787Z,4.68
2023-04-16T21:02:44.206Z,5.30
2023-04-16T21:05:14.488Z,5.53
2023-04-16T21:07:42.400Z,5.50
2023-04-16T21:10:10.790Z,6.30
2023-04-16T21:12:38.097Z,6.03
2023-04-16T21:15:05.572Z,5.88
2023-04-16T21:17:32.508Z,6.65
2023-04-16T21:19:59.516Z,5.97
2023-04-16T21:22:26.538Z,5.70
2023-04-16T21:24:53.484Z,7.28
2023-04-16T21:27:20.399Z,7.80
2023-04-16T21:29:47.476Z,7.50
2023-04-16T21:32:14.461Z,7.85
2023-04-16T21:34:41.342Z,7.88
2023-04-16T21:37:08.295Z,8.02
2023-04-16T21:39:35.332Z,7.72
2023-04-16T21:42:02.187Z,8.25
2023-04-16T21:44:29.052Z,8.82
2023-04-16T21:46:55.966Z,8.38
2023-04-16T21:49:23.190Z,8.60
2023-04-16T21:51:50.317Z,8.25
2023-04-16T21:54:18.577Z,10.25
2023-04-16T21:56:46.101Z,9.50
2023-04-16T21:59:13.190Z,8.77
2023-04-16T22:01:40.263Z,10.70
2023-04-16T22:04:07.521Z,10.38
2023-04-16T22:06:34.464Z,10.77
2023-04-16T22:09:01.749Z,10.10
2023-04-16T22:11:28.673Z,10.32
2023-04-16T22:13:57.660Z,11.00
2023-04-16T22:16:25.684Z,11.20
2023-04-16T22:18:54.883Z,10.57
2023-04-16T22:21:21.799Z,11.15
2023-04-16T22:23:48.729Z,11.07
2023-04-16T22:26:16.059Z,10.43
2023-04-16T22:28:42.895Z,10.60
2023-04-16T22:31:10.070Z,9.98
2023-04-16T22:33:36.979Z,10.07
2023-04-16T22:36:04.226Z,10.60
2023-04-16T22:38:31.160Z,9.77
2023-04-16T22:40:58.043Z,10.43
2023-04-16T22:43:25.036Z,10.90
2023-04-16T22:46:04.502Z,9.68
2023-04-16T22:48:36.510Z,9.73
2023-04-16T22:51:04.684Z,10.75
2023-04-16T22:53:31.730Z,11.63
2023-04-16T22:55:58.648Z,10.52
2023-04-16T22:58:25.928Z,10.82
2023-04-16T23:00:52.882Z,12.13
2023-04-16T23:03:19.829Z,12.30
2023-04-16T23:05:46.781Z,12.65
2023-04-16T23:08:13.839Z,11.02
2023-04-16T23:10:40.746Z,9.80
2023-04-16T23:13:07.573Z,10.48
2023-04-16T23:15:34.610Z,10.60
2023-04-16T23:18:01.610Z,10.63
2023-04-16T23:20:29.227Z,9.57
2023-04-16T23:22:56.241Z,10.68
2023-04-16T23:25:23.557Z,11.55
2023-04-16T23:27:50.449Z,11.00
2023-04-16T23:30:17.585Z,10.40
2023-04-16T23:32:44.529Z,11.80
2023-04-16T23:35:11.595Z,11.05
2023-04-16T23:37:38.563Z,11.30
2023-04-16T23:40:06.950Z,11.02
2023-04-16T23:42:33.861Z,11.85
2023-04-16T23:45:00.863Z,12.45
2023-04-16T23:47:27.788Z,12.27
2023-04-16T23:49:54.760Z,11.77
2023-04-16T23:52:21.685Z,11.70
2023-04-16T23:54:48.695Z,11.32
2023-04-16T23:57:15.772Z,11.48
2023-04-16T23:59:42.607Z,11.52
